ZKJEE NZKK-NZWR

Flight info

Callsign ZKJEE
Flight time 0h 17m
Altitude 10000
Route UPGAM
Aircraft DHC6/L-SDFGR/G

Departure

Time 2026-04-21 23:19
Airport Kerikeri Airport (NZKK)

Arrival

Time 2026-04-21 23:36
Airport Whangarei Airport (NZWR)
Time Latitude Longitude Altitude Speed Heading
2026-04-21 23:12 -35.25257 173.91054 501 ft 0 kts 166°
2026-04-21 23:18 -35.25360 173.91086 501 ft 54 kts 166°
2026-04-21 23:18 -35.25953 173.91272 526 ft 111 kts 166°
2026-04-21 23:18 -35.26691 173.91494 868 ft 110 kts 161°
2026-04-21 23:19 -35.27228 173.92182 1247 ft 117 kts 124°
2026-04-21 23:19 -35.27609 173.93060 1663 ft 120 kts 122°
2026-04-21 23:19 -35.28007 173.93981 2079 ft 122 kts 122°
2026-04-21 23:19 -35.28421 173.94893 2473 ft 125 kts 123°
2026-04-21 23:20 -35.28864 173.95823 2884 ft 127 kts 124°
2026-04-21 23:20 -35.29306 173.96710 3266 ft 129 kts 125°
2026-04-21 23:20 -35.29809 173.97697 3688 ft 131 kts 125°
2026-04-21 23:20 -35.30301 173.98648 4088 ft 133 kts 125°
2026-04-21 23:21 -35.30805 173.99603 4488 ft 135 kts 125°
2026-04-21 23:21 -35.31327 174.00571 4891 ft 137 kts 125°
2026-04-21 23:21 -35.31858 174.01544 5293 ft 138 kts 126°
2026-04-21 23:21 -35.32390 174.02531 5694 ft 140 kts 126°
2026-04-21 23:22 -35.32930 174.03545 6100 ft 141 kts 126°
2026-04-21 23:22 -35.33551 174.04414 6477 ft 139 kts 152°
2026-04-21 23:22 -35.34462 174.04816 6905 ft 136 kts 167°
2026-04-21 23:22 -35.35366 174.05105 7300 ft 137 kts 169°
2026-04-21 23:23 -35.36299 174.05388 7704 ft 137 kts 169°
2026-04-21 23:23 -35.37232 174.05677 8106 ft 138 kts 169°
2026-04-21 23:23 -35.38163 174.05972 8506 ft 139 kts 169°
2026-04-21 23:23 -35.39093 174.06276 8904 ft 139 kts 169°
2026-04-21 23:24 -35.40041 174.06591 9309 ft 139 kts 170°
2026-04-21 23:24 -35.40966 174.06891 9701 ft 140 kts 171°
2026-04-21 23:24 -35.41932 174.07204 9938 ft 152 kts 171°
2026-04-21 23:24 -35.43022 174.07561 10006 ft 168 kts 169°
2026-04-21 23:25 -35.44170 174.07942 10007 ft 176 kts 169°
2026-04-21 23:25 -35.45374 174.08358 10005 ft 182 kts 168°
2026-04-21 23:25 -35.46599 174.08784 10003 ft 185 kts 168°
2026-04-21 23:25 -35.47829 174.09211 10002 ft 187 kts 168°
2026-04-21 23:26 -35.49093 174.09640 10001 ft 187 kts 169°
2026-04-21 23:26 -35.50348 174.10069 10000 ft 188 kts 168°
2026-04-21 23:26 -35.51615 174.10502 10000 ft 189 kts 168°
2026-04-21 23:26 -35.52888 174.10928 10000 ft 189 kts 168°
2026-04-21 23:27 -35.54158 174.11364 10000 ft 189 kts 168°
2026-04-21 23:27 -35.55420 174.11838 9997 ft 191 kts 162°
2026-04-21 23:27 -35.56602 174.12589 10002 ft 192 kts 153°
2026-04-21 23:27 -35.57745 174.13447 10001 ft 193 kts 151°
2026-04-21 23:28 -35.58886 174.14312 10000 ft 193 kts 150°
2026-04-21 23:28 -35.60026 174.15176 10000 ft 193 kts 151°
2026-04-21 23:28 -35.61168 174.16029 10000 ft 193 kts 152°
2026-04-21 23:28 -35.62335 174.16872 10001 ft 193 kts 152°
2026-04-21 23:29 -35.63506 174.17709 9938 ft 191 kts 152°
2026-04-21 23:29 -35.64603 174.18492 9667 ft 180 kts 153°
2026-04-21 23:29 -35.65653 174.19249 9398 ft 166 kts 152°
2026-04-21 23:29 -35.66602 174.19936 9094 ft 151 kts 152°
2026-04-21 23:30 -35.67480 174.20572 8787 ft 143 kts 153°
2026-04-21 23:30 -35.68329 174.21173 8478 ft 137 kts 153°
2026-04-21 23:30 -35.69134 174.21749 8176 ft 132 kts 152°
2026-04-21 23:30 -35.69953 174.22201 7873 ft 127 kts 163°
2026-04-21 23:31 -35.70787 174.22527 7572 ft 125 kts 165°
2026-04-21 23:31 -35.71618 174.22844 7268 ft 123 kts 164°
2026-04-21 23:31 -35.72431 174.23157 6967 ft 122 kts 164°
2026-04-21 23:31 -35.73218 174.23456 6674 ft 121 kts 164°
2026-04-21 23:32 -35.74038 174.23763 6368 ft 120 kts 164°
2026-04-21 23:32 -35.74834 174.24064 6069 ft 120 kts 163°
2026-04-21 23:32 -35.75623 174.24370 5770 ft 119 kts 163°
2026-04-21 23:32 -35.76417 174.24674 5469 ft 119 kts 163°
2026-04-21 23:33 -35.77209 174.24973 5168 ft 118 kts 163°
2026-04-21 23:33 -35.77925 174.25429 4848 ft 120 kts 131°
2026-04-21 23:33 -35.78094 174.26400 4585 ft 115 kts 86°
2026-04-21 23:33 -35.78001 174.27384 4311 ft 115 kts 81°
2026-04-21 23:34 -35.77895 174.28296 4081 ft 101 kts 80°
2026-04-21 23:34 -35.77796 174.29099 3792 ft 91 kts 78°
2026-04-21 23:34 -35.77701 174.29859 3483 ft 88 kts 77°
2026-04-21 23:34 -35.77606 174.30595 3162 ft 88 kts 75°
2026-04-21 23:35 -35.77517 174.31344 2809 ft 93 kts 77°
2026-04-21 23:35 -35.77421 174.32185 2330 ft 105 kts 79°
2026-04-21 23:35 -35.77232 174.33058 1862 ft 104 kts 80°
2026-04-21 23:35 -35.77084 174.33942 1233 ft 112 kts 81°
2026-04-21 23:36 -35.77020 174.34909 669 ft 112 kts 89°
2026-04-21 23:36 -35.76973 174.35807 214 ft 100 kts 85°
2026-04-21 23:36 -35.76909 174.36510 143 ft 58 kts 83°
2026-04-21 23:36 -35.76887 174.36725 142 ft 0 kts 82°